Time;durP1;ratioP1;P1;durP2;ratioP2;P2;SDS_P1;SDS_P2;PMS_P1;PMS_P2;Temp;Humidity;BMP_temperature;BMP_pressure;BME280_temperature;BME280_humidity;BME280_pressure;Samples;Min_cycle;Max_cycle;Signal;HPM_P1;HPM_P2
2023/07/18 00:00:36;;;;;;;2.87;2.67;;;23.00;51.90;23.40;101363.00;;;;6272314;22;20167;-61
2023/07/18 00:03:03;;;;;;;2.80;2.53;;;22.90;52.00;23.40;101381.00;;;;6269186;22;20149;-62
2023/07/18 00:05:30;;;;;;;2.90;2.70;;;22.90;52.00;23.20;101382.00;;;;6270336;22;20180;-61
2023/07/18 00:07:55;;;;;;;2.90;2.67;;;22.90;51.90;23.40;101391.00;;;;6270472;22;20193;-62
2023/07/18 00:10:21;;;;;;;3.13;2.80;;;23.00;51.90;23.30;101383.00;;;;6270112;22;20219;-62
2023/07/18 00:12:47;;;;;;;2.60;2.40;;;22.90;51.90;23.30;101386.00;;;;6270261;22;20141;-62
2023/07/18 00:15:13;;;;;;;3.00;2.70;;;22.90;52.10;23.30;101381.00;;;;6270135;22;20141;-62
2023/07/18 00:17:39;;;;;;;3.40;3.10;;;22.80;52.10;23.30;101388.00;;;;6270008;22;20181;-61
2023/07/18 00:20:10;;;;;;;2.80;2.60;;;22.80;52.20;23.20;101394.00;;;;6270490;22;20620;-61
2023/07/18 00:22:43;;;;;;;3.13;2.70;;;22.80;52.30;23.20;101397.00;;;;6270435;22;20221;-61
2023/07/18 00:25:13;;;;;;;2.93;2.73;;;22.70;52.40;22.70;101391.00;;;;6269953;22;20157;-62
2023/07/18 00:27:40;;;;;;;2.90;2.70;;;22.60;52.30;23.10;101399.00;;;;6270671;22;20176;-60
2023/07/18 00:30:12;;;;;;;2.93;2.70;;;22.60;52.50;22.70;101394.00;;;;6270233;22;20192;-60
2023/07/18 00:32:38;;;;;;;2.83;2.63;;;22.60;52.40;23.10;101400.00;;;;6270716;22;20160;-62
2023/07/18 00:35:04;;;;;;;3.20;2.90;;;22.60;52.30;22.60;101391.00;;;;6270253;22;20145;-60
2023/07/18 00:37:31;;;;;;;2.90;2.70;;;22.60;52.60;23.10;101397.00;;;;6270592;22;20218;-60
2023/07/18 00:39:57;;;;;;;3.07;2.87;;;22.60;52.50;23.00;101388.00;;;;6271000;22;20149;-60
2023/07/18 00:42:23;;;;;;;2.63;2.43;;;22.60;52.60;23.00;101387.00;;;;6270662;22;20187;-60
2023/07/18 00:44:49;;;;;;;3.57;2.97;;;22.50;52.60;23.00;101389.00;;;;6270426;22;20203;-61
2023/07/18 00:47:15;;;;;;;2.70;2.50;;;22.50;52.60;23.00;101375.00;;;;6270144;22;20196;-60
2023/07/18 00:49:41;;;;;;;3.63;2.90;;;22.50;53.50;22.90;101386.00;;;;6270126;22;20591;-60
2023/07/18 00:52:07;;;;;;;3.80;2.70;;;22.50;53.00;22.90;101372.00;;;;6270416;22;20145;-60
2023/07/18 00:54:33;;;;;;;3.07;2.77;;;22.40;53.10;22.90;101374.00;;;;6270124;22;20141;-60
2023/07/18 00:56:59;;;;;;;2.80;2.60;;;22.40;53.20;22.60;101364.00;;;;6268706;22;20176;-61
2023/07/18 00:59:25;;;;;;;3.03;2.77;;;22.40;53.20;22.80;101373.00;;;;6217854;22;20149;-61
2023/07/18 01:01:51;;;;;;;5.17;3.00;;;22.40;53.20;22.80;101367.00;;;;6270024;22;20164;-60
2023/07/18 01:04:18;;;;;;;3.20;2.90;;;22.40;53.20;22.80;101365.00;;;;6269896;22;20228;-60
2023/07/18 01:06:44;;;;;;;2.87;2.60;;;22.30;53.20;22.80;101346.00;;;;6269843;22;20169;-61
2023/07/18 01:09:10;;;;;;;2.80;2.60;;;22.40;53.10;22.80;101371.00;;;;6243214;22;20180;-62
2023/07/18 01:11:36;;;;;;;3.17;2.87;;;22.40;53.20;22.70;101360.00;;;;6270430;22;20149;-60
2023/07/18 01:14:03;;;;;;;3.20;2.73;;;22.40;53.30;22.70;101351.00;;;;6270542;22;20141;-61
2023/07/18 01:16:29;;;;;;;3.00;2.70;;;22.30;53.20;22.70;101345.00;;;;6269752;22;20192;-61
2023/07/18 01:18:55;;;;;;;3.13;2.63;;;22.30;53.30;22.70;101356.00;;;;6270177;22;20149;-60
2023/07/18 01:21:21;;;;;;;3.07;2.60;;;22.20;53.30;22.60;101352.00;;;;6270152;22;20227;-60
2023/07/18 01:23:47;;;;;;;3.10;2.80;;;22.10;53.40;22.60;101356.00;;;;6270179;22;20248;-60
2023/07/18 01:26:13;;;;;;;4.43;3.00;;;22.20;53.30;22.60;101355.00;;;;6271099;22;20183;-61
2023/07/18 01:28:39;;;;;;;3.10;2.80;;;22.20;53.30;22.60;101355.00;;;;6272214;22;20659;-61
2023/07/18 01:31:05;;;;;;;3.60;2.70;;;22.20;53.30;22.50;101340.00;;;;6272217;22;20145;-61
2023/07/18 01:33:32;;;;;;;3.87;3.00;;;22.10;53.40;22.50;101349.00;;;;6276698;22;20503;-61
2023/07/18 01:35:57;;;;;;;2.67;2.47;;;22.10;53.50;22.50;101346.00;;;;6280716;22;20520;-61
2023/07/18 01:38:29;;;;;;;3.70;2.97;;;22.00;53.60;22.40;101342.00;;;;6271725;22;20144;-62
2023/07/18 01:41:00;;;;;;;3.20;2.90;;;22.00;53.50;22.40;101339.00;;;;6272580;22;20134;-61
2023/07/18 01:43:26;;;;;;;3.10;2.73;;;21.90;53.50;22.40;101335.00;;;;6272233;22;20244;-61
2023/07/18 01:45:52;;;;;;;2.90;2.60;;;21.90;53.50;22.40;101330.00;;;;6272033;22;20509;-61
2023/07/18 01:48:19;;;;;;;4.73;3.00;;;21.90;53.40;22.40;101344.00;;;;6273657;22;20153;-62
2023/07/18 01:50:44;;;;;;;3.87;2.90;;;21.90;53.40;22.40;101339.00;;;;6272948;22;20232;-61
2023/07/18 01:53:13;;;;;;;4.33;2.90;;;21.90;53.50;22.30;101338.00;;;;6269775;22;20580;-61
2023/07/18 01:55:39;;;;;;;2.80;2.60;;;21.90;53.40;22.30;101327.00;;;;6269330;22;20145;-61
2023/07/18 01:58:05;;;;;;;3.00;2.70;;;21.90;53.40;22.30;101340.00;;;;6269648;22;20141;-61
2023/07/18 02:00:31;;;;;;;3.20;2.70;;;21.90;53.30;22.30;101331.00;;;;6269800;22;20156;-61
2023/07/18 02:02:57;;;;;;;3.17;2.87;;;21.90;53.40;22.30;101333.00;;;;6272248;22;20145;-61
2023/07/18 02:05:25;;;;;;;2.80;2.60;;;21.90;53.40;22.30;101320.00;;;;6271090;22;20601;-61
2023/07/18 02:07:52;;;;;;;2.97;2.70;;;21.80;53.30;22.30;101325.00;;;;6271762;22;20177;-61
2023/07/18 02:10:21;;;;;;;2.93;2.50;;;21.80;53.30;22.20;101317.00;;;;6272210;22;20188;-61
2023/07/18 02:12:48;;;;;;;3.23;2.70;;;21.80;53.30;22.20;101318.00;;;;6245376;22;20585;-62
2023/07/18 02:15:14;;;;;;;2.97;2.67;;;21.80;53.40;22.20;101312.00;;;;6271299;22;20198;-61
2023/07/18 02:17:40;;;;;;;4.07;3.00;;;21.80;53.60;22.20;101314.00;;;;6271761;22;20184;-61
2023/07/18 02:20:09;;;;;;;2.80;2.60;;;21.80;53.70;22.20;101312.00;;;;6271801;22;20807;-61
2023/07/18 02:22:35;;;;;;;3.33;2.67;;;21.70;53.50;22.10;101314.00;;;;6272064;22;20149;-61
2023/07/18 02:25:02;;;;;;;3.20;2.90;;;21.70;53.80;22.10;101323.00;;;;6271292;22;20145;-61
2023/07/18 02:27:28;;;;;;;3.17;2.87;;;21.60;53.70;22.10;101323.00;;;;6271362;22;20264;-61
2023/07/18 02:29:53;;;;;;;3.63;2.60;;;21.70;53.80;22.10;101322.00;;;;6270959;22;20173;-61
2023/07/18 02:32:20;;;;;;;2.90;2.60;;;21.60;53.70;22.10;101326.00;;;;6269708;22;20185;-60
2023/07/18 02:34:45;;;;;;;2.80;2.60;;;21.60;53.70;22.00;101316.00;;;;6270836;22;20149;-60
2023/07/18 02:37:11;;;;;;;3.27;2.80;;;21.60;53.70;22.00;101321.00;;;;6270834;22;20187;-60
2023/07/18 02:39:38;;;;;;;2.70;2.50;;;21.60;53.70;22.00;101322.00;;;;6271243;22;20149;-60
2023/07/18 02:42:08;;;;;;;2.83;2.60;;;21.60;53.70;22.00;101320.00;;;;6271351;22;20155;-60
2023/07/18 02:44:34;;;;;;;3.17;2.77;;;21.70;53.80;22.00;101306.00;;;;6271236;22;20646;-61
2023/07/18 02:46:59;;;;;;;3.40;2.77;;;21.60;53.70;22.00;101315.00;;;;6270402;22;20164;-60
2023/07/18 02:49:25;;;;;;;10.97;3.20;;;21.60;53.60;21.90;101319.00;;;;6270884;22;20179;-61
2023/07/18 02:51:51;;;;;;;4.80;2.60;;;21.50;53.60;21.90;101305.00;;;;6271423;22;20220;-60
2023/07/18 02:54:17;;;;;;;6.83;2.70;;;21.50;53.80;21.90;101306.00;;;;6271213;22;20144;-60
2023/07/18 02:56:43;;;;;;;3.50;2.67;;;21.60;53.90;21.90;101311.00;;;;6270225;22;20681;-60
2023/07/18 02:59:09;;;;;;;3.03;2.73;;;21.40;53.80;21.90;101311.00;;;;6270538;22;20262;-60
2023/07/18 03:01:34;;;;;;;2.73;2.43;;;21.50;53.80;21.80;101310.00;;;;6271403;22;20175;-60
2023/07/18 03:04:00;;;;;;;4.77;4.13;;;21.40;53.70;21.80;101303.00;;;;6272287;22;20217;-60
2023/07/18 03:06:27;;;;;;;3.70;3.40;;;21.40;53.70;21.80;101308.00;;;;6272019;22;20628;-60
2023/07/18 03:08:53;;;;;;;3.10;2.80;;;21.30;53.70;21.80;101309.00;;;;6272548;22;20214;-59
2023/07/18 03:11:19;;;;;;;3.80;3.10;;;21.30;53.80;21.80;101309.00;;;;6272466;22;20148;-59
2023/07/18 03:13:45;;;;;;;2.80;2.60;;;21.30;53.90;21.80;101313.00;;;;6270944;22;20144;-59
2023/07/18 03:16:10;;;;;;;3.00;2.70;;;21.30;53.90;21.70;101303.00;;;;6270320;22;20184;-59
2023/07/18 03:18:37;;;;;;;2.90;2.70;;;21.40;53.80;21.70;101306.00;;;;6272409;22;20145;-60
2023/07/18 03:21:03;;;;;;;2.63;2.43;;;21.30;53.80;21.70;101306.00;;;;6270838;22;20153;-60
2023/07/18 03:23:29;;;;;;;2.87;2.60;;;21.30;53.70;21.70;101302.00;;;;6272554;22;20454;-60
2023/07/18 03:25:55;;;;;;;2.80;2.60;;;21.30;53.70;21.70;101306.00;;;;6270721;22;20148;-59
2023/07/18 03:28:21;;;;;;;3.10;2.73;;;21.20;53.70;21.60;101306.00;;;;6272619;22;20159;-60
2023/07/18 03:30:47;;;;;;;2.93;2.63;;;21.30;53.70;21.60;101304.00;;;;6272805;22;20156;-59
2023/07/18 03:33:12;;;;;;;3.50;2.80;;;21.20;53.80;21.60;101302.00;;;;6282317;22;20248;-59
2023/07/18 03:35:39;;;;;;;3.10;2.80;;;21.10;53.90;21.50;101302.00;;;;6273591;22;20191;-59
2023/07/18 03:38:04;;;;;;;3.23;2.93;;;21.00;53.90;21.50;101303.00;;;;6272497;22;20145;-59
2023/07/18 03:40:30;;;;;;;3.50;2.63;;;21.00;53.90;21.50;101311.00;;;;6272042;22;20263;-62
2023/07/18 03:42:56;;;;;;;4.77;3.27;;;21.10;53.80;21.50;101303.00;;;;6272371;22;20615;-60
2023/07/18 03:45:22;;;;;;;3.17;2.87;;;21.10;53.90;21.50;101308.00;;;;6273769;22;20153;-59
2023/07/18 03:47:47;;;;;;;3.17;2.87;;;21.00;53.90;21.50;101315.00;;;;6281214;22;20255;-61
2023/07/18 03:50:15;;;;;;;3.07;2.80;;;21.10;54.00;21.50;101307.00;;;;6272063;22;20169;-60
2023/07/18 03:52:41;;;;;;;4.17;2.93;;;21.10;53.90;21.50;101306.00;;;;6272484;22;20145;-61
2023/07/18 03:55:08;;;;;;;2.97;2.73;;;21.10;54.00;21.40;101309.00;;;;6271708;22;20162;-60
2023/07/18 03:57:37;;;;;;;3.17;2.50;;;21.10;53.60;21.40;101304.00;;;;6271825;22;20240;-60
2023/07/18 04:00:13;;;;;;;3.40;3.10;;;21.10;53.30;21.40;101302.00;;;;6272444;22;20154;-61
2023/07/18 04:02:40;;;;;;;3.30;2.93;;;21.20;53.80;21.50;101299.00;;;;6270616;22;20137;-60
2023/07/18 04:05:06;;;;;;;3.93;2.90;;;21.20;53.40;21.50;101307.00;;;;6271057;22;20612;-60
2023/07/18 04:07:32;;;;;;;3.97;2.77;;;21.20;53.40;21.50;101295.00;;;;6272190;22;20177;-60
2023/07/18 04:09:58;;;;;;;3.10;2.40;;;21.20;53.20;21.50;101304.00;;;;6271849;22;20222;-60
2023/07/18 04:12:24;;;;;;;5.33;2.90;;;21.20;53.30;21.50;101292.00;;;;6272103;22;20221;-60
2023/07/18 04:14:50;;;;;;;2.90;2.70;;;21.20;53.40;21.50;101298.00;;;;6271655;22;20144;-60
2023/07/18 04:17:16;;;;;;;2.90;2.60;;;21.20;53.10;21.50;101298.00;;;;6271111;22;20203;-61
2023/07/18 04:19:42;;;;;;;3.23;2.70;;;21.30;53.70;21.50;101291.00;;;;6270691;22;20231;-61
2023/07/18 04:22:08;;;;;;;3.30;3.00;;;21.20;53.10;21.50;101291.00;;;;6271962;22;20172;-61
2023/07/18 04:24:34;;;;;;;3.60;2.90;;;21.20;53.40;21.50;101291.00;;;;6271861;22;20182;-60
2023/07/18 04:26:59;;;;;;;4.43;2.90;;;21.20;53.40;21.50;101297.00;;;;6271183;22;20621;-61
2023/07/18 04:29:25;;;;;;;3.07;2.77;;;21.20;53.30;21.40;101286.00;;;;6270539;22;20177;-60
2023/07/18 04:31:52;;;;;;;3.77;3.00;;;21.20;53.20;21.40;101295.00;;;;6271643;22;20148;-60
2023/07/18 04:34:18;;;;;;;3.47;2.70;;;21.20;53.20;21.40;101288.00;;;;6271846;22;20207;-60
2023/07/18 04:36:44;;;;;;;3.13;2.70;;;21.20;53.40;21.40;101291.00;;;;6265000;22;20195;-49
2023/07/18 04:39:10;;;;;;;4.33;3.07;;;21.20;53.40;21.40;101301.00;;;;6271513;22;20286;-48
2023/07/18 04:41:36;;;;;;;2.93;2.70;;;21.20;53.50;21.40;101304.00;;;;6271505;22;20186;-50
2023/07/18 04:44:03;;;;;;;2.97;2.77;;;21.10;53.30;21.40;101307.00;;;;6271856;22;20148;-49
2023/07/18 04:46:29;;;;;;;3.00;2.70;;;21.10;53.00;21.40;101306.00;;;;6270561;22;20182;-49
2023/07/18 04:48:54;;;;;;;3.13;2.83;;;21.10;52.90;21.30;101303.00;;;;6271004;22;20844;-49
2023/07/18 04:51:20;;;;;;;3.93;2.80;;;21.10;53.00;21.30;101306.00;;;;6243540;22;20151;-49
2023/07/18 04:53:46;;;;;;;3.00;2.70;;;21.10;53.00;21.30;101294.00;;;;6271284;22;20214;-49
2023/07/18 04:56:12;;;;;;;3.60;3.00;;;21.10;52.90;21.30;101290.00;;;;6270293;22;20192;-49
2023/07/18 04:58:37;;;;;;;3.07;2.77;;;21.10;53.30;21.30;101284.00;;;;6269749;22;20152;-48
2023/07/18 05:01:03;;;;;;;3.20;2.90;;;21.00;53.30;21.30;101290.00;;;;6271919;22;20164;-48
2023/07/18 05:03:29;;;;;;;3.17;2.53;;;21.00;53.30;21.30;101284.00;;;;6273187;22;20207;-49
2023/07/18 05:05:56;;;;;;;3.17;2.87;;;21.00;53.20;21.30;101287.00;;;;6269449;22;20202;-48
2023/07/18 05:08:21;;;;;;;3.67;2.90;;;21.00;53.60;21.30;101289.00;;;;6273180;22;20180;-51
2023/07/18 05:10:47;;;;;;;3.10;2.77;;;21.00;53.70;21.30;101288.00;;;;6272690;22;20233;-48
2023/07/18 05:13:13;;;;;;;2.93;2.70;;;21.00;53.90;21.30;101276.00;;;;6272023;22;20206;-49
2023/07/18 05:15:44;;;;;;;3.00;2.70;;;21.00;53.60;21.30;101280.00;;;;6272306;22;20160;-49
2023/07/18 05:18:10;;;;;;;2.90;2.70;;;21.00;53.80;21.20;101285.00;;;;6271845;22;20522;-49
2023/07/18 05:20:35;;;;;;;4.03;3.20;;;20.90;53.80;21.20;101279.00;;;;6272380;22;20178;-49
2023/07/18 05:23:01;;;;;;;2.60;2.40;;;20.90;53.80;21.20;101284.00;;;;6273379;22;20155;-49
2023/07/18 05:25:28;;;;;;;4.47;2.87;;;20.90;53.70;21.20;101284.00;;;;6272287;22;20251;-50
2023/07/18 05:27:53;;;;;;;3.00;2.70;;;20.90;53.80;21.20;101286.00;;;;6273714;22;20203;-49
2023/07/18 05:30:20;;;;;;;2.80;2.60;;;20.90;54.20;21.20;101287.00;;;;6228794;22;20501;-50
2023/07/18 05:32:46;;;;;;;3.00;2.80;;;20.90;53.90;21.20;101276.00;;;;6279155;22;20141;-50
2023/07/18 05:35:14;;;;;;;3.10;2.80;;;20.80;54.20;21.20;101287.00;;;;6270782;22;20148;-50
2023/07/18 05:37:40;;;;;;;3.00;2.80;;;20.90;54.00;21.20;101287.00;;;;6273948;22;20172;-50
2023/07/18 05:40:09;;;;;;;2.70;2.50;;;20.90;54.10;21.20;101283.00;;;;6272988;22;20230;-50
2023/07/18 05:42:36;;;;;;;3.50;2.93;;;20.80;54.10;21.20;101285.00;;;;6271831;22;20454;-50
2023/07/18 05:45:01;;;;;;;3.47;2.77;;;20.80;54.40;21.20;101294.00;;;;6282653;22;20234;-50
2023/07/18 05:47:27;;;;;;;3.23;2.70;;;20.80;54.30;21.10;101300.00;;;;6275057;22;20192;-50
2023/07/18 05:49:53;;;;;;;4.23;2.60;;;20.70;54.70;21.10;101297.00;;;;6272396;22;20659;-50
2023/07/18 05:52:18;;;;;;;2.80;2.60;;;20.70;54.60;21.10;101286.00;;;;6272599;22;20619;-49
2023/07/18 05:54:45;;;;;;;3.13;2.80;;;20.80;54.80;21.10;101306.00;;;;6271161;22;20239;-49
2023/07/18 05:57:10;;;;;;;4.47;3.07;;;20.80;54.70;21.10;101296.00;;;;6272214;22;20481;-49
2023/07/18 05:59:36;;;;;;;3.10;2.80;;;20.70;54.70;21.10;101289.00;;;;6272619;22;20178;-49
2023/07/18 06:02:02;;;;;;;3.30;2.70;;;20.70;55.60;21.10;101294.00;;;;6272656;22;20155;-49
2023/07/18 06:04:28;;;;;;;4.70;3.00;;;20.70;54.90;20.90;101296.00;;;;6272657;22;20151;-49
2023/07/18 06:06:54;;;;;;;3.00;2.70;;;20.70;55.00;21.10;101301.00;;;;6271872;22;20723;-49
2023/07/18 06:09:20;;;;;;;3.13;2.83;;;20.70;55.30;21.10;101295.00;;;;6272320;22;20668;-49
2023/07/18 06:11:45;;;;;;;2.87;2.60;;;20.70;55.10;21.10;101311.00;;;;6272072;22;20187;-49
2023/07/18 06:14:11;;;;;;;2.90;2.60;;;20.60;55.10;21.00;101296.00;;;;6272717;22;20144;-48
2023/07/18 06:16:37;;;;;;;3.27;2.50;;;20.60;55.40;21.00;101294.00;;;;6271390;22;20180;-49
2023/07/18 06:19:02;;;;;;;3.67;2.63;;;20.50;55.60;21.00;101300.00;;;;6272632;22;20148;-49
2023/07/18 06:21:28;;;;;;;3.43;2.63;;;20.50;55.40;21.00;101302.00;;;;6272587;22;20232;-49
2023/07/18 06:23:54;;;;;;;2.83;2.53;;;20.50;55.50;20.80;101304.00;;;;6272875;22;20155;-49
2023/07/18 06:26:20;;;;;;;3.30;2.73;;;20.50;55.60;21.00;101306.00;;;;6271756;22;20172;-49
2023/07/18 06:28:46;;;;;;;2.80;2.60;;;20.50;55.50;21.10;101294.00;;;;6272825;22;20231;-49
2023/07/18 06:31:12;;;;;;;3.93;2.80;;;20.60;55.80;21.10;101302.00;;;;6272001;22;20141;-49
2023/07/18 06:33:37;;;;;;;4.17;2.70;;;20.60;55.60;21.00;101297.00;;;;6273170;22;20143;-49
2023/07/18 06:36:03;;;;;;;4.20;2.63;;;20.60;55.60;21.00;101291.00;;;;6270610;22;20174;-49
2023/07/18 06:38:29;;;;;;;3.00;2.60;;;20.60;55.90;21.00;101290.00;;;;6272290;22;20141;-49
2023/07/18 06:40:55;;;;;;;2.80;2.60;;;20.50;55.60;21.00;101291.00;;;;6272032;22;20168;-49
2023/07/18 06:43:21;;;;;;;3.70;2.60;;;20.50;55.60;21.00;101289.00;;;;6272346;22;20602;-49
2023/07/18 06:45:47;;;;;;;3.20;2.70;;;20.50;55.60;21.00;101285.00;;;;6271557;22;20175;-49
2023/07/18 06:48:13;;;;;;;3.50;2.70;;;20.50;55.90;21.00;101290.00;;;;6272894;22;20228;-49
2023/07/18 06:50:49;;;;;;;4.47;2.50;;;20.50;55.70;21.00;101272.00;;;;6271733;22;20190;-49
2023/07/18 06:53:17;;;;;;;3.77;2.60;;;20.50;55.70;21.00;101267.00;;;;6272854;22;20530;-49
2023/07/18 06:55:43;;;;;;;3.00;2.70;;;20.60;55.80;21.00;101279.00;;;;6271729;22;20193;-49
2023/07/18 06:58:09;;;;;;;3.13;2.60;;;20.50;55.90;21.00;101275.00;;;;6272346;22;20145;-49
2023/07/18 07:00:38;;;;;;;3.13;2.80;;;20.50;55.70;21.00;101275.00;;;;6271788;22;20250;-49
2023/07/18 07:03:04;;;;;;;3.03;2.73;;;20.50;55.80;21.00;101281.00;;;;6272562;22;20157;-50
2023/07/18 07:05:30;;;;;;;2.93;2.70;;;20.50;55.80;21.00;101270.00;;;;6271346;22;20180;-49
2023/07/18 07:07:56;;;;;;;2.93;2.60;;;20.50;55.90;21.00;101268.00;;;;6272376;22;20178;-48
2023/07/18 07:10:21;;;;;;;3.13;2.70;;;20.50;56.00;21.00;101268.00;;;;6271820;22;20646;-49
2023/07/18 07:12:47;;;;;;;3.60;3.00;;;20.50;55.80;21.00;101179.00;;;;6272167;22;20498;-50
2023/07/18 07:15:13;;;;;;;3.73;3.10;;;20.50;56.10;21.00;101260.00;;;;6271756;22;20155;-50
2023/07/18 07:17:39;;;;;;;3.40;2.70;;;20.50;56.10;21.00;101256.00;;;;6272233;22;20249;-50
2023/07/18 07:20:14;;;;;;;2.77;2.43;;;20.60;55.90;21.10;101268.00;;;;6271009;22;20536;-48
2023/07/18 07:22:43;;;;;;;2.93;2.60;;;20.60;55.50;21.10;101263.00;;;;6270497;22;20136;-50
2023/07/18 07:25:13;;;;;;;2.80;2.47;;;20.60;55.60;21.10;101270.00;;;;6270723;22;20483;-50
2023/07/18 07:27:39;;;;;;;2.50;2.30;;;20.60;55.60;21.00;101257.00;;;;6270390;22;20178;-50
2023/07/18 07:30:06;;;;;;;2.50;2.30;;;20.50;55.50;21.00;101251.00;;;;6278229;22;20184;-50
2023/07/18 07:32:32;;;;;;;4.37;2.40;;;20.50;55.60;21.00;101254.00;;;;6272956;22;20152;-49
2023/07/18 07:34:58;;;;;;;2.33;2.13;;;20.50;55.60;21.00;101252.00;;;;6271783;22;20621;-50
2023/07/18 07:37:23;;;;;;;3.00;2.40;;;20.50;55.20;21.00;101255.00;;;;6272313;22;20173;-51
2023/07/18 07:39:49;;;;;;;2.70;2.30;;;20.50;55.40;21.00;101252.00;;;;6272776;22;20847;-50
2023/07/18 07:42:15;;;;;;;2.40;2.20;;;20.60;55.40;21.10;101246.00;;;;6273793;22;20151;-50
2023/07/18 07:44:41;;;;;;;2.80;2.20;;;20.60;55.50;21.10;101245.00;;;;6282602;22;20171;-53
2023/07/18 07:47:07;;;;;;;4.00;2.50;;;20.60;55.30;21.10;101240.00;;;;6268979;22;20319;-50
2023/07/18 07:49:32;;;;;;;3.03;2.13;;;20.60;56.00;21.10;101223.00;;;;6270394;22;20198;-50
2023/07/18 07:51:58;;;;;;;2.20;2.00;;;20.60;55.60;21.20;101153.00;;;;6270480;22;20758;-49
2023/07/18 07:54:24;;;;;;;2.60;2.40;;;20.60;55.50;21.20;101227.00;;;;6270235;22;20145;-50
2023/07/18 07:56:50;;;;;;;3.47;2.60;;;20.70;55.50;21.20;101227.00;;;;6268062;22;20165;-49
2023/07/18 07:59:15;;;;;;;4.57;2.67;;;20.60;55.50;21.20;101230.00;;;;6268971;22;20160;-50
2023/07/18 08:01:41;;;;;;;2.63;2.40;;;20.70;55.50;21.20;101221.00;;;;6270416;22;20607;-49
2023/07/18 08:04:08;;;;;;;3.53;2.40;;;20.60;55.30;21.20;101225.00;;;;6271832;22;20156;-50
2023/07/18 08:06:34;;;;;;;4.37;2.43;;;20.60;55.90;21.10;101216.00;;;;6271106;22;20180;-49
2023/07/18 08:09:02;;;;;;;2.77;2.30;;;20.50;55.90;21.10;101224.00;;;;6271978;22;20479;-49
2023/07/18 08:11:28;;;;;;;3.30;2.53;;;20.50;56.00;21.10;101223.00;;;;6272123;22;20461;-49
2023/07/18 08:13:54;;;;;;;2.87;2.40;;;20.50;56.10;21.10;101225.00;;;;6272165;22;20171;-48
2023/07/18 08:16:20;;;;;;;2.77;2.50;;;20.60;55.60;21.10;101228.00;;;;6271280;22;20189;-49
2023/07/18 08:18:46;;;;;;;3.20;2.23;;;20.60;55.80;21.20;101234.00;;;;6272113;22;20564;-48
2023/07/18 08:21:13;;;;;;;2.80;2.50;;;20.60;55.10;21.20;101224.00;;;;6270773;22;20147;-49
2023/07/18 08:23:39;;;;;;;2.53;2.33;;;20.70;55.50;21.20;101209.00;;;;6272257;22;20151;-49
2023/07/18 08:26:05;;;;;;;3.80;2.50;;;20.70;55.60;21.20;101220.00;;;;6271333;22;20529;-49
2023/07/18 08:28:31;;;;;;;2.77;2.40;;;20.60;55.50;21.20;101219.00;;;;6272395;22;20167;-49
2023/07/18 08:30:57;;;;;;;3.63;2.50;;;20.60;55.30;21.20;101220.00;;;;6272171;22;20148;-48
2023/07/18 08:33:24;;;;;;;4.03;2.40;;;20.70;54.60;21.20;101218.00;;;;6271934;22;20147;-50
2023/07/18 08:35:50;;;;;;;3.00;2.00;;;20.70;54.40;21.20;101216.00;;;;6270711;22;20148;-49
2023/07/18 08:38:15;;;;;;;3.43;2.50;;;20.70;54.20;21.20;101217.00;;;;6272317;22;20140;-48
2023/07/18 08:40:43;;;;;;;3.27;2.40;;;20.70;53.90;21.30;101210.00;;;;6271690;22;20202;-48
2023/07/18 08:43:13;;;;;;;4.50;2.40;;;20.70;54.20;21.30;101208.00;;;;6272152;22;20148;-51
2023/07/18 08:45:39;;;;;;;4.47;2.50;;;20.60;54.10;21.30;101204.00;;;;6271168;22;20136;-50
2023/07/18 08:48:05;;;;;;;4.87;2.33;;;20.70;54.10;21.30;101203.00;;;;6271611;22;20157;-51
2023/07/18 08:50:31;;;;;;;2.93;2.30;;;20.70;53.90;21.30;101185.00;;;;6271453;22;20790;-51
2023/07/18 08:52:57;;;;;;;5.33;2.53;;;20.70;53.60;21.30;101201.00;;;;6270130;22;20152;-50
2023/07/18 08:55:23;;;;;;;4.93;2.60;;;20.70;53.20;21.30;101129.00;;;;6271159;22;20152;-51
2023/07/18 08:57:50;;;;;;;3.50;2.30;;;20.70;53.00;21.30;101203.00;;;;6270318;22;20163;-51
2023/07/18 09:00:20;;;;;;;4.10;2.40;;;20.70;53.20;21.30;101197.00;;;;6270370;22;20156;-50
2023/07/18 09:02:48;;;;;;;3.87;2.43;;;20.70;54.10;21.40;101199.00;;;;6272270;22;20153;-50
2023/07/18 09:05:40;;;;;;;4.80;2.50;;;20.80;54.10;21.40;101200.00;;;;6270981;22;20182;-50
2023/07/18 09:08:06;;;;;;;4.57;2.80;;;20.80;52.50;21.40;101188.00;;;;6266510;22;20221;-50
2023/07/18 09:10:32;;;;;;;3.90;2.70;;;20.80;51.70;21.40;101180.00;;;;6272181;22;20180;-50
2023/07/18 09:13:03;;;;;;;3.47;2.70;;;20.80;51.80;21.40;101178.00;;;;6272666;22;20487;-50
2023/07/18 09:15:29;;;;;;;4.03;2.73;;;20.70;52.10;21.40;101175.00;;;;6271315;22;20155;-50
2023/07/18 09:17:56;;;;;;;3.87;2.80;;;20.80;52.70;21.40;101173.00;;;;6271524;22;20180;-51
2023/07/18 09:20:26;;;;;;;9.40;2.93;;;20.80;52.90;21.40;101172.00;;;;6271655;22;20286;-51
2023/07/18 09:22:59;;;;;;;4.60;2.77;;;20.80;53.00;21.40;101164.00;;;;6269882;22;20137;-56
2023/07/18 09:25:25;;;;;;;4.33;2.60;;;20.80;52.60;21.50;101157.00;;;;6271269;22;20157;-57
2023/07/18 09:27:52;;;;;;;5.30;2.73;;;20.90;52.50;21.50;101152.00;;;;6272162;22;20176;-54
2023/07/18 09:30:42;;;;;;;4.03;2.77;;;20.90;52.70;21.60;101152.00;;;;6279281;22;20176;-55
2023/07/18 09:33:08;;;;;;;6.03;2.53;;;20.90;52.90;21.60;101139.00;;;;6271285;22;20207;-57
2023/07/18 09:35:39;;;;;;;5.13;2.70;;;21.00;53.60;21.60;101129.00;;;;6270574;22;20152;-57
2023/07/18 09:38:05;;;;;;;2.80;2.50;;;21.00;53.70;21.60;101152.00;;;;6271909;22;20175;-55
2023/07/18 09:40:31;;;;;;;3.00;2.30;;;21.00;53.20;21.70;101159.00;;;;6270797;22;20152;-57
2023/07/18 09:42:57;;;;;;;4.47;2.80;;;21.00;53.40;21.70;101157.00;;;;6272649;22;20178;-55
2023/07/18 09:45:23;;;;;;;5.70;2.70;;;21.10;53.10;21.70;101160.00;;;;6273511;22;20153;-54
2023/07/18 09:47:49;;;;;;;3.27;2.60;;;21.10;53.10;21.80;101158.00;;;;6245965;22;20604;-55
2023/07/18 09:50:15;;;;;;;3.93;2.70;;;21.10;53.40;21.80;101164.00;;;;6245868;22;20742;-54
2023/07/18 09:52:49;;;;;;;3.03;2.60;;;21.10;53.90;21.80;101162.00;;;;6273711;22;20145;-55
2023/07/18 09:55:18;;;;;;;4.87;2.60;;;21.20;54.10;21.80;101133.00;;;;6272138;22;20491;-55
2023/07/18 09:57:44;;;;;;;4.00;2.80;;;21.30;52.20;21.90;101159.00;;;;6245693;22;20230;-55
2023/07/18 10:00:15;;;;;;;5.83;3.10;;;21.30;52.00;21.90;101167.00;;;;6272562;22;20152;-55
2023/07/18 10:02:42;;;;;;;6.10;2.77;;;21.30;52.00;21.90;101164.00;;;;6272982;22;20593;-56
2023/07/18 10:05:11;;;;;;;3.37;2.80;;;21.30;51.30;22.00;101161.00;;;;6272084;22;20224;-55
2023/07/18 10:07:38;;;;;;;5.03;2.90;;;21.40;51.40;22.00;101169.00;;;;6273467;22;20180;-54
2023/07/18 10:10:09;;;;;;;4.70;3.13;;;21.50;50.70;22.10;101161.00;;;;6273365;22;20263;-54
2023/07/18 10:12:37;;;;;;;3.73;2.67;;;21.50;50.40;22.10;101165.00;;;;6270615;22;20133;-57
2023/07/18 10:15:04;;;;;;;5.60;3.37;;;21.50;51.00;22.10;101156.00;;;;6269977;22;20155;-56
2023/07/18 10:17:41;;;;;;;5.00;3.00;;;21.50;51.40;22.20;101159.00;;;;6271619;22;20199;-57
2023/07/18 10:20:11;;;;;;;4.87;2.90;;;21.50;50.90;22.20;101162.00;;;;6272787;22;20145;-56
2023/07/18 10:22:37;;;;;;;3.80;2.93;;;21.50;51.50;22.20;101150.00;;;;6273353;22;20207;-57
2023/07/18 10:25:06;;;;;;;5.43;3.07;;;21.50;51.20;22.20;101142.00;;;;6243826;22;20156;-57
2023/07/18 10:27:43;;;;;;;4.10;3.00;;;21.60;51.50;22.30;101145.00;;;;6271784;22;20561;-56
2023/07/18 10:30:13;;;;;;;7.03;3.37;;;21.60;51.50;22.30;101122.00;;;;6271288;22;20231;-55
2023/07/18 10:32:39;;;;;;;4.17;3.27;;;21.60;50.90;22.30;101132.00;;;;6271673;22;20224;-56
2023/07/18 10:35:13;;;;;;;4.40;3.03;;;21.60;51.00;22.30;101127.00;;;;6271382;22;20599;-56
2023/07/18 10:37:43;;;;;;;3.13;2.77;;;21.70;51.40;22.40;101109.00;;;;6271323;22;20196;-54
2023/07/18 10:40:10;;;;;;;5.80;2.90;;;21.70;51.60;22.40;101114.00;;;;6270767;22;20783;-54
2023/07/18 10:42:36;;;;;;;3.27;2.80;;;21.70;51.40;22.40;101101.00;;;;6271944;22;20295;-56
2023/07/18 10:45:06;;;;;;;2.80;2.50;;;21.70;52.50;22.40;101111.00;;;;6271437;22;20188;-55